Time;durP1;ratioP1;P1;durP2;ratioP2;P2;SDS_P1;SDS_P2;PMS_P1;PMS_P2;Temp;Humidity;BMP_temperature;BMP_pressure;BME280_temperature;BME280_humidity;BME280_pressure;Samples;Min_cycle;Max_cycle;Signal;HPM_P1;HPM_P2
2023/03/06 00:02:13;;;;;;;;;;;1.60;99.90;;;;;;5023938;28;19929;-68
2023/03/06 00:04:40;;;;;;;;;;;1.60;99.90;;;;;;5024189;28;19988;-68
2023/03/06 00:07:08;;;;;;;;;;;1.60;99.90;;;;;;5024095;28;19989;-68
2023/03/06 00:09:34;;;;;;;;;;;1.60;99.90;;;;;;5024582;28;19963;-68
2023/03/06 00:12:01;;;;;;;;;;;1.60;99.90;;;;;;5024399;28;20167;-68
2023/03/06 00:14:28;;;;;;;;;;;1.50;99.90;;;;;;5024250;28;19984;-68
2023/03/06 00:16:55;;;;;;;;;;;1.60;99.90;;;;;;5023816;28;20121;-68
2023/03/06 00:19:22;;;;;;;;;;;1.50;99.90;;;;;;5024267;28;19922;-68
2023/03/06 00:21:48;;;;;;;;;;;1.50;99.90;;;;;;5024187;28;20000;-68
2023/03/06 00:24:16;;;;;;;;;;;1.60;99.90;;;;;;5024182;28;19988;-68
2023/03/06 00:26:43;;;;;;;;;;;1.60;99.90;;;;;;5023836;28;19926;-68
2023/03/06 00:29:10;;;;;;;;;;;1.60;99.90;;;;;;5024167;28;20193;-68
2023/03/06 00:31:36;;;;;;;;;;;1.50;99.90;;;;;;5024219;28;20167;-68
2023/03/06 00:34:03;;;;;;;;;;;1.50;99.90;;;;;;5024162;28;19995;-68
2023/03/06 00:36:30;;;;;;;;;;;1.50;99.90;;;;;;5023387;28;20280;-68
2023/03/06 00:38:56;;;;;;;;;;;1.60;99.90;;;;;;5031823;28;19928;-68
2023/03/06 00:41:25;;;;;;;;;;;1.50;99.90;;;;;;5023553;28;19989;-68
2023/03/06 00:43:52;;;;;;;;;;;1.50;99.90;;;;;;5023630;28;19928;-68
2023/03/06 00:46:19;;;;;;;;;;;1.50;99.90;;;;;;5023518;28;19980;-68
2023/03/06 00:48:45;;;;;;;;;;;1.50;99.90;;;;;;5024059;28;19939;-68
2023/03/06 00:51:12;;;;;;;;;;;1.50;99.90;;;;;;5024102;28;19989;-68
2023/03/06 00:53:38;;;;;;;;;;;1.50;99.90;;;;;;5023839;28;19927;-68
2023/03/06 00:56:07;;;;;;;;;;;1.50;99.90;;;;;;5023632;28;19965;-68
2023/03/06 00:58:36;;;;;;;;;;;1.50;99.90;;;;;;5023961;28;19976;-68
2023/03/06 01:01:03;;;;;;;;;;;1.50;99.90;;;;;;5023524;28;20146;-68
2023/03/06 01:03:30;;;;;;;;;;;1.50;99.90;;;;;;5039611;28;19927;-68
2023/03/06 01:05:56;;;;;;;;;;;1.50;99.90;;;;;;5026480;28;19984;-68
2023/03/06 01:08:23;;;;;;;;;;;1.50;99.90;;;;;;5023482;28;19988;-69
2023/03/06 01:10:50;;;;;;;;;;;1.50;99.90;;;;;;5023969;28;19988;-68
2023/03/06 01:13:16;;;;;;;;;;;1.50;99.90;;;;;;5022557;28;19930;-68
2023/03/06 01:15:44;;;;;;;;;;;1.50;99.90;;;;;;5023661;28;19960;-68
2023/03/06 01:18:11;;;;;;;;;;;1.50;99.90;;;;;;5023387;28;19985;-68
2023/03/06 01:20:38;;;;;;;;;;;1.50;99.90;;;;;;5023322;28;19928;-68
2023/03/06 01:23:07;;;;;;;;;;;1.50;99.90;;;;;;5023163;28;19927;-68
2023/03/06 01:25:33;;;;;;;;;;;1.40;99.90;;;;;;5023416;28;19984;-68
2023/03/06 01:28:00;;;;;;;;;;;1.40;99.90;;;;;;5023380;28;19928;-68
2023/03/06 01:30:27;;;;;;;;;;;1.40;99.90;;;;;;5023706;28;19953;-69
2023/03/06 01:32:54;;;;;;;;;;;1.40;99.90;;;;;;5023273;28;19989;-67
2023/03/06 01:35:21;;;;;;;;;;;1.30;99.90;;;;;;5023587;28;19928;-69
2023/03/06 01:37:48;;;;;;;;;;;1.40;99.90;;;;;;5025177;28;19976;-68
2023/03/06 01:40:14;;;;;;;;;;;1.40;99.90;;;;;;5043006;28;19983;-68
2023/03/06 01:42:41;;;;;;;;;;;1.30;99.90;;;;;;5043274;28;19956;-69
2023/03/06 01:45:29;;;;;;;;;;;1.30;99.90;;;;;;5025516;28;19985;-69
2023/03/06 01:47:57;;;;;;;;;;;1.30;99.90;;;;;;5021236;28;19928;-68
2023/03/06 01:50:23;;;;;;;;;;;1.30;99.90;;;;;;5023545;28;19921;-68
2023/03/06 01:52:52;;;;;;;;;;;1.30;99.90;;;;;;5023114;28;19948;-69
2023/03/06 01:55:21;;;;;;;;;;;1.30;99.90;;;;;;5025472;28;19989;-68
2023/03/06 01:57:56;;;;;;;;;;;1.30;99.90;;;;;;5025670;28;19921;-69
2023/03/06 02:00:24;;;;;;;;;;;1.30;99.90;;;;;;5026888;28;19921;-69
2023/03/06 02:02:53;;;;;;;;;;;1.30;99.90;;;;;;5026814;28;19928;-68
2023/03/06 02:05:21;;;;;;;;;;;1.30;99.90;;;;;;5026680;28;19951;-68
2023/03/06 02:07:48;;;;;;;;;;;1.30;99.90;;;;;;5026358;28;19921;-68
2023/03/06 02:10:15;;;;;;;;;;;1.30;99.90;;;;;;5026659;28;19953;-68
2023/03/06 02:12:43;;;;;;;;;;;1.30;99.90;;;;;;5026622;28;19984;-70
2023/03/06 02:15:10;;;;;;;;;;;1.30;99.90;;;;;;5026511;28;19921;-68
2023/03/06 02:17:37;;;;;;;;;;;1.30;99.90;;;;;;5026389;28;19928;-68
2023/03/06 02:20:07;;;;;;;;;;;1.30;99.90;;;;;;5026767;28;19988;-68
2023/03/06 02:22:37;;;;;;;;;;;1.30;99.90;;;;;;5026593;28;19952;-68
2023/03/06 02:25:08;;;;;;;;;;;1.30;99.90;;;;;;5026457;28;19979;-68
2023/03/06 02:27:36;;;;;;;;;;;1.30;99.90;;;;;;5026474;28;19921;-68
2023/03/06 02:30:05;;;;;;;;;;;1.30;99.90;;;;;;5026610;28;19988;-68
2023/03/06 02:32:32;;;;;;;;;;;1.30;99.90;;;;;;5025888;28;20042;-69
2023/03/06 02:34:58;;;;;;;;;;;1.30;99.90;;;;;;5026451;28;19927;-68
2023/03/06 02:37:26;;;;;;;;;;;1.30;99.90;;;;;;5025854;28;20237;-69
2023/03/06 02:39:56;;;;;;;;;;;1.30;99.90;;;;;;5037464;28;19984;-68
2023/03/06 02:42:24;;;;;;;;;;;1.30;99.90;;;;;;5046000;28;20132;-67
2023/03/06 02:44:53;;;;;;;;;;;1.30;99.90;;;;;;5045870;28;19960;-68
2023/03/06 02:47:20;;;;;;;;;;;1.20;99.90;;;;;;5045686;28;19927;-69
2023/03/06 02:49:47;;;;;;;;;;;1.30;99.90;;;;;;5046078;28;19921;-69
2023/03/06 02:52:13;;;;;;;;;;;1.30;99.90;;;;;;5045752;28;19921;-68
2023/03/06 02:54:41;;;;;;;;;;;1.30;99.90;;;;;;5045561;28;19957;-68
2023/03/06 02:57:08;;;;;;;;;;;1.20;99.90;;;;;;5045520;28;19921;-68
2023/03/06 02:59:34;;;;;;;;;;;1.30;99.90;;;;;;5045530;28;19988;-69
2023/03/06 03:02:02;;;;;;;;;;;1.20;99.90;;;;;;5045815;28;20018;-68
2023/03/06 03:04:29;;;;;;;;;;;1.30;99.90;;;;;;5040435;28;19928;-69
2023/03/06 03:06:56;;;;;;;;;;;1.30;99.90;;;;;;5024943;28;19957;-68
2023/03/06 03:09:22;;;;;;;;;;;1.20;99.90;;;;;;5006626;28;19957;-67
2023/03/06 03:11:49;;;;;;;;;;;1.20;99.90;;;;;;5007893;28;20003;-68
2023/03/06 03:14:16;;;;;;;;;;;1.20;99.90;;;;;;5019462;28;19928;-68
2023/03/06 03:16:44;;;;;;;;;;;1.30;99.90;;;;;;5024944;28;19921;-68
2023/03/06 03:19:12;;;;;;;;;;;1.30;99.90;;;;;;5025202;28;20221;-68
2023/03/06 03:21:40;;;;;;;;;;;1.30;99.90;;;;;;5025505;28;19921;-69
2023/03/06 03:24:08;;;;;;;;;;;1.30;99.90;;;;;;5024500;28;19957;-68
2023/03/06 03:26:34;;;;;;;;;;;1.20;99.90;;;;;;5025253;28;19964;-68
2023/03/06 03:29:03;;;;;;;;;;;1.20;99.90;;;;;;5025185;28;19968;-69
2023/03/06 03:31:29;;;;;;;;;;;1.20;99.90;;;;;;5024546;28;20197;-68
2023/03/06 03:33:56;;;;;;;;;;;1.20;99.90;;;;;;5024527;28;19921;-68
2023/03/06 03:36:26;;;;;;;;;;;1.20;99.90;;;;;;5014797;28;19953;-69
2023/03/06 03:38:52;;;;;;;;;;;1.20;99.90;;;;;;5025217;28;19929;-68
2023/03/06 03:41:19;;;;;;;;;;;1.30;99.90;;;;;;5025190;28;19921;-69
2023/03/06 03:43:46;;;;;;;;;;;1.20;99.90;;;;;;5026818;28;19926;-68
2023/03/06 03:46:12;;;;;;;;;;;1.20;99.90;;;;;;5044211;28;20232;-69
2023/03/06 03:48:39;;;;;;;;;;;1.20;99.90;;;;;;5035244;28;19927;-68
2023/03/06 03:51:06;;;;;;;;;;;1.20;99.90;;;;;;5024899;28;19984;-68
2023/03/06 03:53:34;;;;;;;;;;;1.20;99.90;;;;;;5024921;28;19948;-69
2023/03/06 03:56:00;;;;;;;;;;;1.20;99.90;;;;;;5024172;28;19952;-68
2023/03/06 03:58:27;;;;;;;;;;;1.20;99.90;;;;;;5024301;28;20388;-69
2023/03/06 04:00:54;;;;;;;;;;;1.20;99.90;;;;;;5024823;28;19957;-68
2023/03/06 04:03:20;;;;;;;;;;;1.20;99.90;;;;;;5024413;28;20004;-68
2023/03/06 04:05:47;;;;;;;;;;;1.20;99.90;;;;;;5024727;28;20108;-68
2023/03/06 04:08:14;;;;;;;;;;;1.20;99.90;;;;;;5024615;28;19968;-68
2023/03/06 04:10:42;;;;;;;;;;;1.20;99.90;;;;;;5024611;28;19928;-68
2023/03/06 04:13:09;;;;;;;;;;;1.20;99.90;;;;;;5024536;28;20004;-68
2023/03/06 04:15:35;;;;;;;;;;;1.30;99.90;;;;;;5023933;28;20231;-69
2023/03/06 04:18:02;;;;;;;;;;;1.20;99.90;;;;;;5023287;28;19992;-68
2023/03/06 04:20:28;;;;;;;;;;;1.20;99.90;;;;;;5024489;28;19953;-68
2023/03/06 04:22:55;;;;;;;;;;;1.20;99.90;;;;;;5024437;28;20225;-68
2023/03/06 04:25:22;;;;;;;;;;;1.30;99.90;;;;;;5024327;28;19928;-68
2023/03/06 04:27:50;;;;;;;;;;;1.20;99.90;;;;;;5023727;28;19921;-68
2023/03/06 04:30:17;;;;;;;;;;;1.20;99.90;;;;;;5024320;28;19988;-68
2023/03/06 04:32:43;;;;;;;;;;;1.20;99.90;;;;;;5024417;28;19922;-68
2023/03/06 04:35:10;;;;;;;;;;;1.20;99.90;;;;;;5023916;28;19996;-69
2023/03/06 04:37:37;;;;;;;;;;;1.20;99.90;;;;;;5023743;28;19921;-70
2023/03/06 04:40:04;;;;;;;;;;;1.20;99.90;;;;;;5023861;28;19928;-68
2023/03/06 04:42:31;;;;;;;;;;;1.20;99.90;;;;;;5024204;28;19921;-67
2023/03/06 04:44:59;;;;;;;;;;;1.20;99.90;;;;;;5023587;28;20205;-69
2023/03/06 04:47:25;;;;;;;;;;;1.20;99.90;;;;;;5023811;28;19921;-68
2023/03/06 04:49:52;;;;;;;;;;;1.20;99.90;;;;;;5024047;28;19949;-68
2023/03/06 04:52:18;;;;;;;;;;;1.20;99.90;;;;;;5023672;28;19988;-68
2023/03/06 04:54:45;;;;;;;;;;;1.20;99.90;;;;;;5023854;28;19989;-68
2023/03/06 04:57:13;;;;;;;;;;;1.20;99.90;;;;;;5006324;28;19926;-69
2023/03/06 04:59:39;;;;;;;;;;;1.20;99.90;;;;;;5004306;28;19988;-69
2023/03/06 05:02:07;;;;;;;;;;;1.20;99.90;;;;;;5004227;28;20002;-68
2023/03/06 05:04:34;;;;;;;;;;;1.20;99.90;;;;;;5004061;28;19957;-68
2023/03/06 05:07:00;;;;;;;;;;;1.20;99.90;;;;;;5003867;28;19953;-68
2023/03/06 05:09:27;;;;;;;;;;;1.20;99.90;;;;;;5004042;28;19989;-68
2023/03/06 05:11:54;;;;;;;;;;;1.20;99.90;;;;;;5003896;28;19921;-68
2023/03/06 05:14:20;;;;;;;;;;;1.20;99.90;;;;;;5010122;28;20221;-68
2023/03/06 05:16:47;;;;;;;;;;;1.20;99.90;;;;;;5023198;28;20277;-68
2023/03/06 05:19:15;;;;;;;;;;;1.20;99.90;;;;;;5023969;28;19988;-68
2023/03/06 05:21:41;;;;;;;;;;;1.20;99.90;;;;;;5023322;28;19985;-70
2023/03/06 05:24:09;;;;;;;;;;;1.30;99.90;;;;;;5023511;28;19980;-69
2023/03/06 05:26:35;;;;;;;;;;;1.20;99.90;;;;;;5023268;28;19921;-69
2023/03/06 05:29:02;;;;;;;;;;;1.20;99.90;;;;;;5025300;28;19984;-68
2023/03/06 05:31:29;;;;;;;;;;;1.20;99.90;;;;;;5027250;28;19997;-68
2023/03/06 05:33:57;;;;;;;;;;;1.20;99.90;;;;;;5026439;28;19929;-68
2023/03/06 05:36:25;;;;;;;;;;;1.20;99.90;;;;;;5026359;28;19993;-69
2023/03/06 05:38:51;;;;;;;;;;;1.10;99.90;;;;;;5027213;28;19964;-68
2023/03/06 05:41:18;;;;;;;;;;;1.10;99.90;;;;;;5027333;28;19984;-68
2023/03/06 05:43:44;;;;;;;;;;;1.20;99.90;;;;;;5036985;28;19952;-67
2023/03/06 05:46:11;;;;;;;;;;;1.20;99.90;;;;;;5037905;28;19980;-68
2023/03/06 05:48:38;;;;;;;;;;;1.20;99.90;;;;;;5025411;28;19921;-68
2023/03/06 05:51:05;;;;;;;;;;;1.20;99.90;;;;;;5026946;28;19984;-67
2023/03/06 05:53:33;;;;;;;;;;;1.10;99.90;;;;;;5026868;28;20206;-68
2023/03/06 05:56:00;;;;;;;;;;;1.20;99.90;;;;;;5026714;28;19921;-68
2023/03/06 05:58:28;;;;;;;;;;;1.20;99.90;;;;;;5026623;28;20213;-68
2023/03/06 06:00:54;;;;;;;;;;;1.20;99.90;;;;;;5007227;28;20162;-68
2023/03/06 06:03:21;;;;;;;;;;;1.20;99.90;;;;;;5026398;28;19974;-67
2023/03/06 06:05:47;;;;;;;;;;;1.20;99.90;;;;;;5038053;28;19921;-69
2023/03/06 06:08:14;;;;;;;;;;;1.20;99.90;;;;;;5046218;28;19948;-69
2023/03/06 06:10:42;;;;;;;;;;;1.10;99.90;;;;;;5046579;28;20259;-68
2023/03/06 06:13:09;;;;;;;;;;;1.10;99.90;;;;;;5046634;28;19925;-68
2023/03/06 06:15:37;;;;;;;;;;;1.20;99.90;;;;;;5046481;28;20145;-68
2023/03/06 06:18:04;;;;;;;;;;;1.10;99.90;;;;;;5046356;28;19927;-67
2023/03/06 06:20:30;;;;;;;;;;;1.10;99.90;;;;;;5029847;28;20153;-67
2023/03/06 06:22:57;;;;;;;;;;;1.10;99.90;;;;;;5026641;28;19921;-67
2023/03/06 06:25:24;;;;;;;;;;;1.10;99.90;;;;;;5026215;28;19922;-69
2023/03/06 06:27:53;;;;;;;;;;;1.00;99.90;;;;;;5026134;28;20169;-69
2023/03/06 06:30:20;;;;;;;;;;;1.10;99.90;;;;;;5026369;28;19928;-69
2023/03/06 06:32:47;;;;;;;;;;;1.10;99.90;;;;;;5026168;28;19921;-71
2023/03/06 06:35:14;;;;;;;;;;;1.10;99.90;;;;;;5026419;28;19988;-69
2023/03/06 06:37:40;;;;;;;;;;;1.10;99.90;;;;;;5024906;28;19921;-70
2023/03/06 06:40:08;;;;;;;;;;;1.10;99.90;;;;;;5025266;28;19989;-69
2023/03/06 06:42:35;;;;;;;;;;;1.20;99.90;;;;;;5026559;28;19984;-70
2023/03/06 06:45:04;;;;;;;;;;;1.20;99.90;;;;;;5027398;28;19929;-70
2023/03/06 06:47:31;;;;;;;;;;;1.20;99.90;;;;;;5025438;28;20264;-69
2023/03/06 06:49:58;;;;;;;;;;;1.20;99.90;;;;;;5025467;28;20333;-70
2023/03/06 06:52:25;;;;;;;;;;;1.20;99.90;;;;;;5026074;28;19993;-69
2023/03/06 06:54:51;;;;;;;;;;;1.20;99.90;;;;;;5025881;28;19988;-69
2023/03/06 06:57:18;;;;;;;;;;;1.30;99.90;;;;;;5025197;28;20285;-69
2023/03/06 06:59:45;;;;;;;;;;;1.30;99.90;;;;;;5025488;28;19992;-69
2023/03/06 07:02:13;;;;;;;;;;;1.40;99.90;;;;;;5026003;28;20228;-70
2023/03/06 07:04:40;;;;;;;;;;;1.40;99.90;;;;;;5025489;28;20276;-69
2023/03/06 07:07:06;;;;;;;;;;;1.50;99.90;;;;;;5024805;28;19988;-69
2023/03/06 07:09:33;;;;;;;;;;;1.50;99.90;;;;;;5025512;28;19921;-69
2023/03/06 07:11:59;;;;;;;;;;;1.50;99.90;;;;;;5025412;28;19921;-69
2023/03/06 07:14:26;;;;;;;;;;;1.40;99.90;;;;;;5025748;28;19984;-69
2023/03/06 07:16:53;;;;;;;;;;;1.50;99.90;;;;;;5021989;28;19930;-69
2023/03/06 07:19:21;;;;;;;;;;;1.50;99.90;;;;;;5011031;28;19944;-69
2023/03/06 07:21:47;;;;;;;;;;;1.50;99.90;;;;;;5025178;28;19921;-69
2023/03/06 07:24:14;;;;;;;;;;;1.50;99.90;;;;;;5025554;28;19988;-69
2023/03/06 07:26:45;;;;;;;;;;;1.50;99.90;;;;;;5025342;28;20201;-69
2023/03/06 07:29:11;;;;;;;;;;;1.60;99.90;;;;;;5025281;28;20217;-69
2023/03/06 07:31:38;;;;;;;;;;;1.60;99.90;;;;;;5025191;28;19993;-69
2023/03/06 07:34:05;;;;;;;;;;;1.60;99.90;;;;;;5025462;28;19996;-69
2023/03/06 07:36:33;;;;;;;;;;;1.70;99.90;;;;;;5024012;28;20209;-69
2023/03/06 07:39:00;;;;;;;;;;;1.70;99.90;;;;;;5024932;28;19959;-69
2023/03/06 07:41:26;;;;;;;;;;;1.70;99.90;;;;;;5024935;28;19984;-69
2023/03/06 07:43:53;;;;;;;;;;;1.70;99.90;;;;;;5036226;28;20190;-69
2023/03/06 07:46:20;;;;;;;;;;;1.70;99.90;;;;;;5044300;28;19956;-70
2023/03/06 07:48:46;;;;;;;;;;;1.80;99.90;;;;;;5044475;28;19943;-69
2023/03/06 07:51:14;;;;;;;;;;;1.70;99.90;;;;;;5005046;28;19977;-70
2023/03/06 07:53:42;;;;;;;;;;;1.80;99.90;;;;;;5005263;28;20166;-69
2023/03/06 07:56:10;;;;;;;;;;;1.80;99.90;;;;;;5004557;28;20121;-70
2023/03/06 07:58:37;;;;;;;;;;;1.80;99.90;;;;;;5005173;28;19937;-69
2023/03/06 08:01:04;;;;;;;;;;;1.80;99.90;;;;;;5005213;28;19953;-69
2023/03/06 08:03:31;;;;;;;;;;;1.90;99.90;;;;;;5005192;28;19989;-68
2023/03/06 08:06:04;;;;;;;;;;;1.90;99.90;;;;;;5021297;28;19984;-69
2023/03/06 08:08:31;;;;;;;;;;;1.90;99.90;;;;;;5024321;28;19928;-69
2023/03/06 08:10:59;;;;;;;;;;;2.00;99.90;;;;;;5024885;28;19952;-70
2023/03/06 08:13:25;;;;;;;;;;;2.00;99.90;;;;;;5024528;28;19922;-69
2023/03/06 08:15:52;;;;;;;;;;;2.00;99.90;;;;;;5023953;28;20205;-69
2023/03/06 08:18:19;;;;;;;;;;;2.00;99.90;;;;;;5023980;28;19959;-69
2023/03/06 08:20:46;;;;;;;;;;;2.00;99.90;;;;;;5024025;28;19921;-68
2023/03/06 08:23:12;;;;;;;;;;;2.00;99.90;;;;;;5037967;28;19963;-69
2023/03/06 08:25:39;;;;;;;;;;;2.00;99.90;;;;;;5044060;28;19957;-69
2023/03/06 08:28:08;;;;;;;;;;;2.10;99.90;;;;;;5041667;28;19975;-68
2023/03/06 08:30:35;;;;;;;;;;;2.10;99.90;;;;;;5044201;28;20156;-69
2023/03/06 08:33:01;;;;;;;;;;;2.10;99.90;;;;;;5043826;28;19984;-69
2023/03/06 08:35:28;;;;;;;;;;;2.20;99.90;;;;;;5043980;28;19928;-69
2023/03/06 08:37:55;;;;;;;;;;;2.20;99.90;;;;;;5041439;28;19984;-69
2023/03/06 08:40:22;;;;;;;;;;;2.20;99.90;;;;;;5043621;28;19921;-69
2023/03/06 08:42:49;;;;;;;;;;;2.20;99.90;;;;;;5041643;28;20136;-69
2023/03/06 08:45:19;;;;;;;;;;;2.20;99.90;;;;;;5031220;28;20256;-69
2023/03/06 08:47:45;;;;;;;;;;;2.30;99.90;;;;;;5009184;28;19928;-68
2023/03/06 08:50:12;;;;;;;;;;;2.30;99.90;;;;;;5024048;28;20012;-69
2023/03/06 08:52:38;;;;;;;;;;;2.30;99.90;;;;;;5024116;28;19943;-69
2023/03/06 08:55:06;;;;;;;;;;;2.40;99.90;;;;;;5023790;28;20023;-69
2023/03/06 08:57:32;;;;;;;;;;;2.40;99.90;;;;;;5023386;28;19922;-68
2023/03/06 08:59:59;;;;;;;;;;;2.40;99.90;;;;;;5024123;28;20004;-69
2023/03/06 09:02:27;;;;;;;;;;;2.40;99.90;;;;;;5023938;28;19988;-69
2023/03/06 09:04:53;;;;;;;;;;;2.50;99.90;;;;;;5023665;28;19922;-69
2023/03/06 09:07:20;;;;;;;;;;;2.50;99.90;;;;;;5023711;28;19922;-69
2023/03/06 09:09:48;;;;;;;;;;;2.50;99.90;;;;;;5021615;28;20120;-69
2023/03/06 09:12:14;;;;;;;;;;;2.50;99.90;;;;;;5021173;28;19936;-68
2023/03/06 09:14:41;;;;;;;;;;;2.50;99.90;;;;;;5023789;28;19928;-69
2023/03/06 09:17:08;;;;;;;;;;;2.50;99.90;;;;;;5023211;28;19956;-68
2023/03/06 09:19:36;;;;;;;;;;;2.50;99.90;;;;;;5023806;28;20270;-69
2023/03/06 09:22:03;;;;;;;;;;;2.50;99.90;;;;;;5023876;28;20206;-69
2023/03/06 09:24:29;;;;;;;;;;;2.50;99.90;;;;;;5023828;28;19993;-69
2023/03/06 09:26:56;;;;;;;;;;;2.60;99.90;;;;;;5023366;28;19997;-69
2023/03/06 09:29:28;;;;;;;;;;;2.60;99.90;;;;;;5021814;28;19921;-69
2023/03/06 09:31:55;;;;;;;;;;;2.60;99.90;;;;;;5024840;28;19992;-68
2023/03/06 09:34:22;;;;;;;;;;;2.60;99.90;;;;;;5005618;28;19949;-68
2023/03/06 09:36:50;;;;;;;;;;;2.60;99.90;;;;;;5003826;28;20118;-74
2023/03/06 09:39:16;;;;;;;;;;;2.70;99.90;;;;;;5005932;28;20001;-69
2023/03/06 09:41:44;;;;;;;;;;;2.70;99.90;;;;;;5005768;28;20099;-68
2023/03/06 09:44:14;;;;;;;;;;;2.80;99.90;;;;;;5024969;28;19984;-69
2023/03/06 09:46:45;;;;;;;;;;;2.80;99.90;;;;;;5041007;28;19956;-68
2023/03/06 09:49:21;;;;;;;;;;;2.80;99.90;;;;;;5033464;28;20210;-69
2023/03/06 09:51:54;;;;;;;;;;;2.70;99.90;;;;;;5023363;28;19992;-69
2023/03/06 09:54:23;;;;;;;;;;;2.70;99.90;;;;;;5022866;28;19921;-69
2023/03/06 09:56:51;;;;;;;;;;;2.70;99.90;;;;;;5021768;28;19921;-69
2023/03/06 09:59:20;;;;;;;;;;;2.70;99.90;;;;;;5021841;28;19980;-70
2023/03/06 10:01:52;;;;;;;;;;;2.80;99.90;;;;;;5023442;28;19989;-69
2023/03/06 10:04:28;;;;;;;;;;;2.80;99.90;;;;;;5023375;28;20113;-69
2023/03/06 10:06:58;;;;;;;;;;;2.80;99.90;;;;;;5022747;28;19937;-68
2023/03/06 10:09:27;;;;;;;;;;;2.90;99.90;;;;;;5038493;28;19944;-68
2023/03/06 10:11:56;;;;;;;;;;;2.80;99.90;;;;;;5043050;28;19948;-69
2023/03/06 10:14:29;;;;;;;;;;;2.90;99.90;;;;;;5042773;28;19944;-69
2023/03/06 10:16:58;;;;;;;;;;;2.90;99.90;;;;;;5031573;28;19963;-70
2023/03/06 10:19:34;;;;;;;;;;;2.90;99.90;;;;;;5026498;28;19921;-69
2023/03/06 10:22:03;;;;;;;;;;;3.00;99.90;;;;;;5026602;28;20263;-69
2023/03/06 10:24:36;;;;;;;;;;;3.00;99.90;;;;;;5026615;28;19968;-69
2023/03/06 10:27:10;;;;;;;;;;;2.90;99.90;;;;;;5026477;28;19928;-68
2023/03/06 10:29:44;;;;;;;;;;;2.90;99.90;;;;;;5026587;28;19921;-68
2023/03/06 10:32:12;;;;;;;;;;;3.00;99.90;;;;;;5026133;28;19981;-69
2023/03/06 10:34:40;;;;;;;;;;;2.90;99.90;;;;;;5026285;28;19928;-69
2023/03/06 10:37:13;;;;;;;;;;;3.00;99.90;;;;;;5016034;28;19929;-69
2023/03/06 10:39:39;;;;;;;;;;;3.00;99.90;;;;;;5006667;28;20206;-69
2023/03/06 10:42:08;;;;;;;;;;;3.00;99.90;;;;;;5006685;28;19952;-69
2023/03/06 10:44:34;;;;;;;;;;;3.00;99.90;;;;;;5007150;28;19942;-69
2023/03/06 10:47:21;;;;;;;;;;;3.00;99.90;;;;;;5045541;28;20086;-69
2023/03/06 10:49:56;;;;;;;;;;;2.90;99.90;;;;;;5025601;28;20144;-69
2023/03/06 10:52:28;;;;;;;;;;;3.00;99.90;;;;;;5026240;28;19922;-69
2023/03/06 10:55:12;;;;;;;;;;;2.90;99.90;;;;;;5026380;28;19957;-69
2023/03/06 10:57:38;;;;;;;;;;;2.90;99.90;;;;;;5012445;28;19922;-69
2023/03/06 11:00:22;;;;;;;;;;;2.90;99.90;;;;;;5006116;28;20182;-69
2023/03/06 11:03:03;;;;;;;;;;;2.90;99.90;;;;;;5014922;28;19933;-69
2023/03/06 11:05:29;;;;;;;;;;;3.00;99.90;;;;;;5025669;28;19988;-69
2023/03/06 11:07:59;;;;;;;;;;;3.00;99.90;;;;;;5025348;28;20272;-68
2023/03/06 11:10:26;;;;;;;;;;;3.00;99.90;;;;;;5025917;28;20321;-68
2023/03/06 11:12:57;;;;;;;;;;;3.00;99.90;;;;;;5025741;28;19952;-68
2023/03/06 11:15:24;;;;;;;;;;;2.90;99.90;;;;;;5025380;28;19929;-68
2023/03/06 11:18:26;;;;;;;;;;;2.80;99.90;;;;;;5023640;28;19968;-68
2023/03/06 11:20:55;;;;;;;;;;;2.80;99.90;;;;;;5024837;28;19988;-69
2023/03/06 11:23:29;;;;;;;;;;;2.90;99.90;;;;;;5025354;28;19921;-69
2023/03/06 11:25:57;;;;;;;;;;;2.90;99.90;;;;;;5024779;28;20158;-69
2023/03/06 11:28:25;;;;;;;;;;;2.90;99.90;;;;;;5024456;28;19956;-68
2023/03/06 11:30:53;;;;;;;;;;;2.90;99.90;;;;;;5025250;28;20165;-69
2023/03/06 11:33:25;;;;;;;;;;;3.00;99.90;;;;;;5025099;28;19921;-69
2023/03/06 11:35:57;;;;;;;;;;;3.10;99.90;;;;;;5024898;28;19928;-69
2023/03/06 11:38:39;;;;;;;;;;;3.20;99.90;;;;;;5024723;28;19929;-69
2023/03/06 11:41:08;;;;;;;;;;;3.30;99.90;;;;;;5024969;28;19921;-68
2023/03/06 11:43:36;;;;;;;;;;;3.30;99.90;;;;;;5030071;28;19984;-69
2023/03/06 11:46:07;;;;;;;;;;;3.30;99.90;;;;;;5036771;28;20156;-69
2023/03/06 11:48:42;;;;;;;;;;;3.30;99.90;;;;;;5036542;28;19922;-68
2023/03/06 11:51:13;;;;;;;;;;;3.40;99.90;;;;;;5024822;28;19922;-70
2023/03/06 11:53:42;;;;;;;;;;;3.40;99.90;;;;;;5025336;28;19928;-68
2023/03/06 11:56:21;;;;;;;;;;;3.40;99.90;;;;;;5023671;28;19921;-68
2023/03/06 11:59:03;;;;;;;;;;;3.50;99.90;;;;;;5010026;28;20086;-68
2023/03/06 12:01:33;;;;;;;;;;;3.50;99.90;;;;;;5022296;28;20176;-68
2023/03/06 12:04:19;;;;;;;;;;;3.50;99.90;;;;;;5028351;28;19992;-68
2023/03/06 12:06:52;;;;;;;;;;;3.50;99.90;;;;;;5025485;28;19929;-67
2023/03/06 12:09:25;;;;;;;;;;;3.50;99.90;;;;;;5024813;28;19921;-68
2023/03/06 12:12:00;;;;;;;;;;;3.50;99.90;;;;;;5024773;28;20262;-68
2023/03/06 12:14:37;;;;;;;;;;;3.50;99.90;;;;;;5024319;28;19929;-68
2023/03/06 12:17:08;;;;;;;;;;;3.60;99.90;;;;;;5024318;28;19937;-68
2023/03/06 12:19:44;;;;;;;;;;;3.60;99.90;;;;;;5024680;28;19985;-68
2023/03/06 12:22:25;;;;;;;;;;;3.70;99.90;;;;;;5025540;28;19949;-68
2023/03/06 12:25:00;;;;;;;;;;;3.70;99.90;;;;;;5024640;28;19928;-68
2023/03/06 12:27:33;;;;;;;;;;;3.70;99.90;;;;;;5024862;28;19984;-70
2023/03/06 12:30:22;;;;;;;;;;;3.70;99.90;;;;;;5025321;28;20285;-68
2023/03/06 12:32:52;;;;;;;;;;;3.70;99.90;;;;;;5024604;28;19960;-68
2023/03/06 12:35:22;;;;;;;;;;;3.70;99.90;;;;;;5024278;28;19921;-68
2023/03/06 12:37:58;;;;;;;;;;;3.70;99.90;;;;;;5021184;28;20000;-68
2023/03/06 12:40:35;;;;;;;;;;;3.60;99.90;;;;;;5024297;28;19925;-71
2023/03/06 12:43:19;;;;;;;;;;;3.60;99.90;;;;;;5024279;28;19922;-68
2023/03/06 12:45:48;;;;;;;;;;;3.60;99.90;;;;;;5003898;28;19953;-68
2023/03/06 12:48:17;;;;;;;;;;;3.60;99.90;;;;;;5003848;28;19922;-69
2023/03/06 12:50:44;;;;;;;;;;;3.70;99.90;;;;;;5004437;28;19928;-69
2023/03/06 12:53:14;;;;;;;;;;;3.70;99.90;;;;;;5004493;28;20101;-68
2023/03/06 12:55:43;;;;;;;;;;;3.60;99.90;;;;;;5006864;28;20223;-69
2023/03/06 12:58:31;;;;;;;;;;;3.50;99.90;;;;;;5023454;28;19921;-68
2023/03/06 13:00:59;;;;;;;;;;;3.50;99.90;;;;;;4998988;28;20156;-69
2023/03/06 13:03:29;;;;;;;;;;;3.50;99.90;;;;;;5023962;28;20193;-69
2023/03/06 13:06:08;;;;;;;;;;;3.50;99.90;;;;;;5023558;28;19989;-69
2023/03/06 13:08:44;;;;;;;;;;;3.50;99.90;;;;;;5023618;28;19949;-69
2023/03/06 13:11:25;;;;;;;;;;;3.50;99.90;;;;;;5023687;28;19921;-69
2023/03/06 13:13:52;;;;;;;;;;;3.50;99.90;;;;;;5023629;28;19921;-69
2023/03/06 13:16:24;;;;;;;;;;;3.30;99.90;;;;;;5022904;28;19943;-69
2023/03/06 13:18:55;;;;;;;;;;;3.20;99.90;;;;;;5023784;28;19922;-68
2023/03/06 13:21:40;;;;;;;;;;;3.20;99.90;;;;;;5023584;28;19963;-69
2023/03/06 13:24:14;;;;;;;;;;;3.20;99.90;;;;;;5023703;28;20094;-69
2023/03/06 13:26:53;;;;;;;;;;;3.30;99.90;;;;;;5023037;28;19989;-69
2023/03/06 13:29:38;;;;;;;;;;;3.40;99.90;;;;;;5023471;28;19923;-69
2023/03/06 13:32:06;;;;;;;;;;;3.50;99.90;;;;;;5023381;28;20393;-69
2023/03/06 13:34:34;;;;;;;;;;;3.60;99.90;;;;;;5023488;28;19985;-68
2023/03/06 13:37:15;;;;;;;;;;;3.60;99.90;;;;;;5022544;28;19992;-68
2023/03/06 13:39:57;;;;;;;;;;;3.60;99.90;;;;;;5021889;28;19928;-69
2023/03/06 13:42:27;;;;;;;;;;;3.60;99.90;;;;;;5022445;28;19921;-69
2023/03/06 13:44:55;;;;;;;;;;;3.60;99.90;;;;;;5023488;28;20000;-69
2023/03/06 13:47:36;;;;;;;;;;;3.50;99.90;;;;;;5022901;28;20145;-69
2023/03/06 13:50:13;;;;;;;;;;;3.50;99.90;;;;;;5025677;28;19980;-69
2023/03/06 13:52:43;;;;;;;;;;;3.50;99.90;;;;;;5027392;28;19984;-69
2023/03/06 13:55:16;;;;;;;;;;;3.50;99.90;;;;;;5027570;28;19956;-69
2023/03/06 13:57:50;;;;;;;;;;;3.50;99.90;;;;;;5026670;28;19927;-69
2023/03/06 14:00:33;;;;;;;;;;;3.50;99.90;;;;;;5027209;28;19988;-69
2023/03/06 14:03:07;;;;;;;;;;;3.60;99.90;;;;;;5027066;28;19984;-69
2023/03/06 14:05:42;;;;;;;;;;;3.60;99.90;;;;;;5026908;28;20260;-69
2023/03/06 14:08:09;;;;;;;;;;;3.60;99.90;;;;;;5026652;28;19921;-69
2023/03/06 14:10:37;;;;;;;;;;;3.70;99.90;;;;;;5027058;28;19921;-69
2023/03/06 14:13:06;;;;;;;;;;;3.70;99.90;;;;;;5026770;28;20121;-68
2023/03/06 14:15:37;;;;;;;;;;;3.70;99.90;;;;;;5026707;28;19992;-68
2023/03/06 14:18:04;;;;;;;;;;;3.70;99.90;;;;;;5026214;28;20016;-69
2023/03/06 14:20:33;;;;;;;;;;;3.70;99.90;;;;;;5026605;28;20308;-69
2023/03/06 14:23:19;;;;;;;;;;;3.70;99.90;;;;;;5026436;28;19984;-69
2023/03/06 14:25:47;;;;;;;;;;;3.70;99.90;;;;;;5026204;28;19996;-69
2023/03/06 14:28:23;;;;;;;;;;;3.60;99.90;;;;;;5026039;28;19932;-69
2023/03/06 14:30:50;;;;;;;;;;;3.50;99.90;;;;;;5025352;28;19929;-70
2023/03/06 14:33:29;;;;;;;;;;;3.30;99.90;;;;;;5026056;28;19921;-69
2023/03/06 14:35:56;;;;;;;;;;;3.20;99.90;;;;;;5025961;28;20164;-68
2023/03/06 14:38:23;;;;;;;;;;;2.90;99.90;;;;;;5025800;28;19928;-69
2023/03/06 14:40:51;;;;;;;;;;;2.80;99.90;;;;;;5026381;28;19921;-70
2023/03/06 14:43:20;;;;;;;;;;;2.80;99.90;;;;;;5026231;28;19927;-69